createdAt,value
2018-12-06T00:00:12.189Z,10.80
2018-12-06T00:03:19.688Z,10.43
2018-12-06T00:06:27.185Z,12.27
2018-12-06T00:09:34.677Z,14.67
2018-12-06T00:12:42.156Z,9.63
2018-12-06T00:16:00.072Z,8.87
2018-12-06T00:19:10.444Z,9.03
2018-12-06T00:22:17.960Z,13.50
2018-12-06T00:25:25.927Z,10.87
2018-12-06T00:28:43.449Z,13.03
2018-12-06T00:32:00.925Z,11.90
2018-12-06T00:35:18.342Z,11.50
2018-12-06T00:38:35.741Z,11.23
2018-12-06T00:41:53.205Z,9.23
2018-12-06T00:45:02.950Z,11.67
2018-12-06T00:48:10.717Z,9.13
2018-12-06T00:51:28.392Z,11.53
2018-12-06T00:54:45.646Z,13.23
2018-12-06T00:58:03.552Z,11.87
2018-12-06T01:01:11.877Z,7.97
2018-12-06T01:04:29.389Z,10.53
2018-12-06T01:07:46.800Z,9.70
2018-12-06T01:11:04.269Z,10.47
2018-12-06T01:14:23.775Z,10.33
2018-12-06T01:17:31.473Z,12.77
2018-12-06T01:20:38.928Z,12.50
2018-12-06T01:23:46.432Z,12.57
2018-12-06T01:27:06.941Z,8.73
2018-12-06T01:30:24.533Z,9.33
2018-12-06T01:33:41.989Z,11.17
2018-12-06T01:36:59.424Z,9.77
2018-12-06T01:40:16.896Z,8.73
2018-12-06T01:43:34.399Z,11.97
2018-12-06T01:46:42.097Z,8.27
2018-12-06T01:49:49.555Z,12.23
2018-12-06T01:52:57.046Z,7.53
2018-12-06T01:56:04.509Z,11.00
2018-12-06T01:59:12.005Z,8.20
2018-12-06T02:02:29.427Z,8.33
2018-12-06T02:05:46.799Z,9.70
2018-12-06T02:09:06.532Z,9.40
2018-12-06T02:12:14.664Z,11.27
2018-12-06T02:15:32.151Z,10.37
2018-12-06T02:18:49.623Z,10.97
2018-12-06T02:22:07.717Z,8.63
2018-12-06T02:28:30.924Z,10.27
2018-12-06T02:31:48.847Z,10.57
2018-12-06T02:35:07.188Z,9.07
2018-12-06T02:38:14.725Z,8.40
2018-12-06T02:41:22.410Z,9.43
2018-12-06T02:44:30.354Z,10.23
2018-12-06T02:47:38.333Z,8.17
2018-12-06T02:50:55.795Z,8.60
2018-12-06T02:54:13.186Z,7.20
2018-12-06T02:57:30.569Z,8.03
2018-12-06T03:00:48.069Z,10.07
2018-12-06T03:03:55.797Z,9.33
2018-12-06T03:07:03.264Z,13.03
2018-12-06T03:10:10.766Z,8.17
2018-12-06T03:13:18.221Z,12.03
2018-12-06T03:16:25.709Z,11.13
2018-12-06T03:19:33.720Z,10.53
2018-12-06T03:22:41.197Z,8.53
2018-12-06T03:25:48.778Z,12.13
2018-12-06T03:29:06.294Z,10.67
2018-12-06T03:32:23.693Z,7.90
2018-12-06T03:35:41.093Z,11.67
2018-12-06T03:38:58.532Z,8.13
2018-12-06T03:42:16.995Z,9.83
2018-12-06T03:45:34.917Z,10.97
2018-12-06T03:48:52.381Z,9.23
2018-12-06T03:52:09.782Z,7.23
2018-12-06T03:55:27.217Z,10.30
2018-12-06T03:58:44.657Z,8.50
2018-12-06T04:02:02.076Z,8.07
2018-12-06T04:05:19.557Z,9.47
2018-12-06T04:08:36.933Z,10.43
2018-12-06T04:11:54.533Z,10.00
2018-12-06T04:15:11.847Z,10.33
2018-12-06T04:18:29.240Z,11.57
2018-12-06T04:21:37.040Z,10.10
2018-12-06T04:24:44.546Z,8.70
2018-12-06T04:27:52.033Z,10.37
2018-12-06T04:34:15.238Z,10.60
2018-12-06T04:37:32.707Z,10.03
2018-12-06T04:40:40.481Z,11.03
2018-12-06T04:43:48.080Z,11.63
2018-12-06T04:46:55.680Z,14.03
2018-12-06T04:50:13.279Z,9.07
2018-12-06T04:53:30.716Z,11.60
2018-12-06T04:56:48.170Z,9.60
2018-12-06T05:00:06.409Z,11.00
2018-12-06T05:03:13.905Z,10.97
2018-12-06T05:06:22.044Z,11.30
2018-12-06T05:09:29.604Z,11.57
2018-12-06T05:12:37.224Z,10.13
2018-12-06T05:15:44.710Z,11.10
2018-12-06T05:19:02.088Z,13.07
2018-12-06T05:22:19.545Z,11.83
2018-12-06T05:25:36.969Z,13.97
2018-12-06T05:28:54.395Z,10.50
2018-12-06T05:32:11.854Z,14.23
2018-12-06T05:35:29.235Z,12.03
2018-12-06T05:38:46.745Z,10.93
2018-12-06T05:42:04.161Z,13.30
2018-12-06T05:45:21.575Z,10.00
2018-12-06T05:48:38.950Z,11.83
2018-12-06T05:51:56.525Z,13.33
2018-12-06T05:55:13.836Z,14.33
2018-12-06T05:58:31.247Z,13.83
2018-12-06T06:01:48.763Z,11.97
2018-12-06T06:05:08.116Z,12.43
2018-12-06T06:08:16.340Z,14.23
2018-12-06T06:11:23.857Z,11.37
2018-12-06T06:14:41.190Z,12.43
2018-12-06T06:17:58.701Z,10.57
2018-12-06T06:21:16.157Z,10.73
2018-12-06T06:24:33.584Z,9.60
2018-12-06T06:27:51.049Z,9.07
2018-12-06T06:31:08.460Z,11.87
2018-12-06T06:34:25.936Z,10.43
2018-12-06T06:37:43.269Z,11.93
2018-12-06T06:41:00.737Z,9.53
2018-12-06T06:44:18.179Z,10.83
2018-12-06T06:47:35.637Z,11.87
2018-12-06T06:50:53.697Z,10.43
2018-12-06T06:54:01.217Z,13.07
2018-12-06T06:57:08.685Z,14.13
2018-12-06T07:00:16.215Z,12.63
2018-12-06T07:03:23.769Z,10.63
2018-12-06T07:06:41.381Z,13.77
2018-12-06T07:09:59.361Z,13.20
2018-12-06T07:13:07.351Z,13.47
2018-12-06T07:16:14.973Z,14.97
2018-12-06T07:19:22.453Z,12.97
2018-12-06T07:25:46.895Z,15.10
2018-12-06T07:29:04.559Z,16.73
2018-12-06T07:32:12.213Z,15.20
2018-12-06T07:35:19.725Z,18.70
2018-12-06T07:38:27.191Z,14.80
2018-12-06T07:44:50.400Z,20.07
2018-12-06T07:51:14.021Z,18.57
2018-12-06T07:54:31.321Z,18.50
2018-12-06T07:57:48.853Z,16.37
2018-12-06T08:01:06.282Z,16.17
2018-12-06T08:04:23.637Z,20.17
2018-12-06T08:07:43.143Z,16.33
2018-12-06T08:11:01.042Z,22.57
2018-12-06T08:14:08.519Z,18.17
2018-12-06T08:20:31.697Z,23.73
2018-12-06T08:23:49.101Z,21.23
2018-12-06T08:27:06.680Z,23.70
2018-12-06T08:30:24.022Z,19.90
2018-12-06T08:33:41.470Z,22.50
2018-12-06T08:36:58.932Z,22.53
2018-12-06T08:40:16.429Z,21.93
2018-12-06T08:43:35.005Z,21.20
2018-12-06T08:49:58.283Z,20.30
2018-12-06T08:53:15.706Z,23.00
2018-12-06T08:56:33.130Z,18.87
2018-12-06T08:59:50.606Z,18.40
2018-12-06T09:03:08.476Z,21.63
2018-12-06T09:06:25.925Z,20.17
2018-12-06T09:09:33.749Z,24.03
2018-12-06T09:15:57.004Z,24.00
2018-12-06T09:19:14.813Z,19.23
2018-12-06T09:22:24.411Z,21.00
2018-12-06T09:25:42.281Z,17.27
2018-12-06T09:28:59.709Z,19.37
2018-12-06T09:32:17.344Z,20.87
2018-12-06T09:35:24.849Z,21.57
2018-12-06T09:41:48.826Z,22.30
2018-12-06T09:45:08.520Z,20.73
2018-12-06T09:51:32.397Z,23.60
2018-12-06T09:54:39.893Z,22.90
2018-12-06T10:01:03.589Z,24.27
2018-12-06T10:04:21.061Z,23.33
2018-12-06T10:07:38.488Z,26.60
2018-12-06T10:10:56.529Z,25.03
2018-12-06T10:14:13.920Z,28.57
2018-12-06T10:17:31.772Z,23.63
2018-12-06T10:20:39.376Z,28.50
2018-12-06T10:27:02.650Z,27.57
2018-12-06T10:30:20.649Z,29.17
2018-12-06T10:33:28.156Z,26.67
2018-12-06T10:36:35.868Z,29.87
2018-12-06T10:39:43.373Z,26.83
2018-12-06T10:43:00.741Z,30.17
2018-12-06T10:46:21.476Z,32.30
2018-12-06T10:49:28.971Z,29.77
2018-12-06T10:55:52.207Z,36.03
2018-12-06T10:59:09.732Z,33.83
2018-12-06T11:02:30.800Z,29.63
2018-12-06T11:05:38.741Z,32.03
2018-12-06T11:12:02.269Z,32.50
2018-12-06T11:15:10.805Z,29.33
2018-12-06T11:18:30.377Z,31.10
2018-12-06T11:21:48.481Z,28.60
2018-12-06T11:24:56.285Z,28.63
2018-12-06T11:31:19.733Z,28.17
2018-12-06T11:34:37.178Z,29.53
2018-12-06T11:37:54.737Z,28.80
2018-12-06T11:41:02.561Z,26.60
2018-12-06T11:47:26.231Z,24.77
2018-12-06T11:50:33.928Z,27.37
2018-12-06T11:53:41.904Z,24.70
2018-12-06T11:56:59.685Z,27.57
2018-12-06T12:00:08.740Z,27.73
2018-12-06T12:03:16.448Z,28.73
2018-12-06T12:06:24.072Z,24.90
2018-12-06T12:09:42.277Z,26.07
2018-12-06T12:12:50.247Z,27.50
2018-12-06T12:16:08.024Z,25.70
2018-12-06T12:22:33.082Z,28.77
2018-12-06T12:25:50.699Z,28.10
2018-12-06T12:29:08.279Z,26.57
2018-12-06T12:32:16.083Z,25.10
2018-12-06T12:35:23.896Z,25.70
2018-12-06T12:38:41.845Z,25.97
2018-12-06T12:41:49.644Z,27.17
2018-12-06T12:44:57.221Z,25.73
2018-12-06T12:51:21.020Z,28.43
2018-12-06T12:57:44.622Z,25.23
2018-12-06T13:00:52.587Z,23.73
2018-12-06T13:07:16.542Z,26.97
2018-12-06T13:10:24.199Z,26.90
2018-12-06T13:13:32.004Z,24.73
2018-12-06T13:16:40.073Z,27.57
2018-12-06T13:19:48.149Z,26.87
2018-12-06T13:26:13.925Z,29.10
2018-12-06T13:32:39.087Z,27.60
2018-12-06T13:35:46.834Z,25.53
2018-12-06T13:42:10.237Z,28.20
2018-12-06T13:45:18.539Z,27.27
2018-12-06T13:51:42.223Z,29.17
2018-12-06T13:54:49.834Z,30.67
2018-12-06T14:01:13.561Z,30.53
2018-12-06T14:07:37.728Z,27.57
2018-12-06T14:10:45.350Z,29.77
2018-12-06T14:17:08.944Z,27.40
2018-12-06T14:20:16.706Z,28.87
2018-12-06T14:23:24.385Z,30.67
2018-12-06T14:26:32.014Z,33.50
2018-12-06T14:32:55.915Z,34.93
2018-12-06T14:36:13.818Z,34.53
2018-12-06T14:42:37.665Z,35.23
2018-12-06T14:45:46.018Z,37.37
2018-12-06T14:49:03.689Z,36.80
2018-12-06T14:52:11.405Z,38.30
2018-12-06T14:55:18.974Z,36.63
2018-12-06T15:01:42.505Z,37.63
2018-12-06T15:08:06.370Z,35.97
2018-12-06T15:11:14.205Z,35.73
2018-12-06T15:17:37.730Z,35.40
2018-12-06T15:20:45.545Z,35.80
2018-12-06T15:27:08.898Z,37.97
2018-12-06T15:30:26.538Z,33.17
2018-12-06T15:33:34.204Z,34.17
2018-12-06T15:36:41.719Z,33.67
2018-12-06T15:43:05.339Z,32.13
2018-12-06T15:46:12.832Z,31.20
2018-12-06T15:52:36.257Z,29.93
2018-12-06T15:55:53.729Z,31.57
2018-12-06T15:59:11.184Z,29.17
2018-12-06T16:02:28.763Z,32.47
2018-12-06T16:05:36.276Z,28.83
2018-12-06T16:11:59.540Z,28.20
2018-12-06T16:15:17.925Z,28.33
2018-12-06T16:21:41.761Z,26.17
2018-12-06T16:28:05.625Z,27.83
2018-12-06T16:31:13.314Z,26.17
2018-12-06T16:37:36.541Z,26.77
2018-12-06T16:40:54.114Z,27.00
2018-12-06T16:47:17.429Z,26.20
2018-12-06T16:50:34.989Z,26.83
2018-12-06T16:53:42.593Z,23.27
2018-12-06T16:56:50.329Z,24.57
2018-12-06T17:03:13.817Z,23.57
2018-12-06T17:06:34.938Z,21.20
2018-12-06T17:13:00.112Z,21.50
2018-12-06T17:16:08.118Z,21.57
2018-12-06T17:22:32.145Z,21.43
2018-12-06T17:25:39.810Z,22.53
2018-12-06T17:32:03.131Z,21.70
2018-12-06T17:35:20.584Z,18.87
2018-12-06T17:38:38.059Z,22.63
2018-12-06T17:41:55.598Z,20.60
2018-12-06T17:48:18.976Z,19.17
2018-12-06T17:51:36.469Z,21.10
2018-12-06T17:57:59.809Z,20.67
2018-12-06T18:01:17.476Z,20.67
2018-12-06T18:07:41.126Z,22.57
2018-12-06T18:10:49.059Z,20.07
2018-12-06T18:17:12.466Z,22.00
2018-12-06T18:20:20.120Z,21.33
2018-12-06T18:23:27.639Z,23.77
2018-12-06T18:26:35.189Z,23.23
2018-12-06T18:32:58.550Z,22.90
2018-12-06T18:36:06.337Z,24.87
2018-12-06T18:42:30.104Z,23.97
2018-12-06T18:48:53.321Z,23.30
2018-12-06T18:52:11.568Z,26.50
2018-12-06T18:58:36.893Z,26.57
2018-12-06T19:01:45.058Z,31.00
2018-12-06T19:05:02.649Z,30.30
2018-12-06T19:08:20.606Z,29.90
2018-12-06T19:11:38.964Z,30.90
2018-12-06T19:18:04.281Z,31.63
2018-12-06T19:21:12.103Z,33.77
2018-12-06T19:27:35.441Z,33.33
2018-12-06T19:30:52.806Z,30.00
2018-12-06T19:34:10.777Z,31.27
2018-12-06T19:37:28.259Z,33.40
2018-12-06T19:40:46.165Z,33.40
2018-12-06T19:44:03.658Z,32.70
2018-12-06T19:47:21.104Z,32.50
2018-12-06T19:50:38.488Z,31.93
2018-12-06T19:53:55.954Z,34.47
2018-12-06T19:57:13.464Z,30.33
2018-12-06T20:00:30.930Z,27.97
2018-12-06T20:03:49.080Z,26.37
2018-12-06T20:07:06.760Z,28.57
2018-12-06T20:10:24.203Z,26.97
2018-12-06T20:13:31.941Z,30.60
2018-12-06T20:16:39.429Z,27.80
2018-12-06T20:23:03.571Z,26.23
2018-12-06T20:26:21.064Z,28.73
2018-12-06T20:32:44.724Z,27.10
2018-12-06T20:39:08.706Z,28.00
2018-12-06T20:42:16.323Z,30.53
2018-12-06T20:48:40.624Z,33.43
2018-12-06T20:51:58.284Z,26.30
2018-12-06T20:58:26.398Z,32.30
2018-12-06T21:01:43.939Z,30.37
2018-12-06T21:08:07.287Z,28.03
2018-12-06T21:11:24.783Z,29.17
2018-12-06T21:14:42.300Z,30.20
2018-12-06T21:18:00.382Z,31.53
2018-12-06T21:21:07.920Z,29.73
2018-12-06T21:27:31.232Z,29.50
2018-12-06T21:30:49.637Z,29.63
2018-12-06T21:33:57.292Z,27.50
2018-12-06T21:37:14.917Z,27.93
2018-12-06T21:40:32.865Z,29.67
2018-12-06T21:43:40.404Z,30.47
2018-12-06T21:46:47.943Z,34.83
2018-12-06T21:53:12.179Z,32.83
2018-12-06T21:56:31.586Z,30.60
2018-12-06T21:59:49.126Z,33.93
2018-12-06T22:02:56.654Z,32.70
2018-12-06T22:09:20.853Z,37.70
2018-12-06T22:12:38.417Z,36.37
2018-12-06T22:15:55.782Z,34.53
2018-12-06T22:19:13.799Z,33.10
2018-12-06T22:22:21.761Z,34.80
2018-12-06T22:28:45.169Z,34.87
2018-12-06T22:32:02.717Z,36.07
2018-12-06T22:38:26.102Z,34.10
2018-12-06T22:41:43.576Z,34.10
2018-12-06T22:46:15.371Z,33.63
2018-12-06T22:52:39.371Z,34.03
2018-12-06T22:59:03.746Z,31.90
2018-12-06T23:02:11.604Z,33.67
2018-12-06T23:08:34.848Z,34.33
2018-12-06T23:11:52.436Z,33.10
2018-12-06T23:18:17.074Z,34.00
2018-12-06T23:21:24.713Z,33.37
2018-12-06T23:24:42.176Z,36.10
2018-12-06T23:27:59.719Z,37.30
2018-12-06T23:31:08.304Z,36.30
2018-12-06T23:34:26.420Z,38.90
2018-12-06T23:37:34.064Z,36.43
2018-12-06T23:43:57.364Z,35.40
2018-12-06T23:47:14.809Z,36.80
2018-12-06T23:50:32.718Z,35.60
2018-12-06T23:53:40.368Z,34.93
2018-12-06T23:56:48.125Z,34.87
